createdAt,value
2022-11-10T00:01:21.692Z,15.16
2022-11-10T00:03:50.693Z,15.14
2022-11-10T00:06:19.382Z,15.09
2022-11-10T00:08:47.897Z,15.05
2022-11-10T00:11:16.457Z,15.00
2022-11-10T00:13:58.825Z,14.96
2022-11-10T00:16:45.984Z,14.94
2022-11-10T00:19:14.390Z,14.92
2022-11-10T00:21:42.769Z,14.91
2022-11-10T00:24:11.141Z,14.91
2022-11-10T00:26:39.529Z,14.88
2022-11-10T00:29:07.946Z,14.88
2022-11-10T00:31:39.260Z,14.85
2022-11-10T00:34:08.698Z,14.81
2022-11-10T00:36:37.198Z,14.76
2022-11-10T00:39:05.957Z,14.72
2022-11-10T00:41:34.606Z,14.68
2022-11-10T00:44:03.240Z,14.65
2022-11-10T00:46:31.816Z,14.62
2022-11-10T00:49:01.526Z,14.58
2022-11-10T00:51:31.499Z,14.57
2022-11-10T00:53:59.964Z,14.56
2022-11-10T00:56:28.468Z,14.54
2022-11-10T00:58:56.977Z,14.49
2022-11-10T01:01:27.014Z,14.40
2022-11-10T01:03:56.316Z,14.31
2022-11-10T01:06:26.080Z,14.25
2022-11-10T01:08:54.432Z,14.16
2022-11-10T01:11:25.866Z,14.05
2022-11-10T01:13:55.857Z,13.95
2022-11-10T01:16:27.513Z,13.82
2022-11-10T01:18:58.007Z,13.71
2022-11-10T01:21:30.130Z,13.59
2022-11-10T01:23:58.873Z,13.50
2022-11-10T01:26:27.568Z,13.38
2022-11-10T01:28:56.037Z,13.27
2022-11-10T01:31:24.573Z,13.19
2022-11-10T01:33:52.967Z,13.14
2022-11-10T01:36:21.328Z,13.12
2022-11-10T01:38:51.050Z,13.09
2022-11-10T01:41:19.450Z,13.10
2022-11-10T01:43:47.883Z,13.12
2022-11-10T01:46:16.713Z,13.13
2022-11-10T01:48:50.627Z,13.12
2022-11-10T01:51:21.846Z,13.11
2022-11-10T01:53:56.030Z,13.07
2022-11-10T01:56:25.641Z,13.03
2022-11-10T01:58:59.877Z,13.04
2022-11-10T02:01:28.309Z,13.03
2022-11-10T02:04:00.537Z,13.02
2022-11-10T02:06:34.966Z,13.01
2022-11-10T02:09:05.076Z,13.01
2022-11-10T02:11:34.581Z,13.02
2022-11-10T02:14:03.350Z,13.00
2022-11-10T02:16:32.541Z,13.01
2022-11-10T02:19:17.459Z,13.00
2022-11-10T02:21:47.441Z,13.03
2022-11-10T02:24:16.134Z,13.05
2022-11-10T02:26:49.758Z,13.06
2022-11-10T02:29:18.470Z,13.09
2022-11-10T02:31:46.882Z,13.12
2022-11-10T02:34:15.379Z,13.16
2022-11-10T02:36:43.761Z,13.21
2022-11-10T02:39:13.594Z,13.25
2022-11-10T02:41:41.931Z,13.31
2022-11-10T02:44:10.500Z,13.35
2022-11-10T02:46:38.880Z,13.38
2022-11-10T02:49:08.122Z,13.40
2022-11-10T02:51:36.483Z,13.42
2022-11-10T02:54:06.162Z,13.42
2022-11-10T02:56:36.423Z,13.39
2022-11-10T02:59:06.182Z,13.39
2022-11-10T03:01:34.647Z,13.38
2022-11-10T03:04:03.058Z,13.40
2022-11-10T03:06:31.479Z,13.42
2022-11-10T03:09:00.100Z,13.45
2022-11-10T03:11:32.248Z,13.46
2022-11-10T03:14:02.828Z,13.49
2022-11-10T03:16:31.747Z,13.53
2022-11-10T03:19:00.116Z,13.56
2022-11-10T03:21:28.466Z,13.57
2022-11-10T03:23:56.780Z,13.57
2022-11-10T03:26:25.132Z,13.57
2022-11-10T03:28:53.467Z,13.59
2022-11-10T03:31:23.239Z,13.61
2022-11-10T03:33:51.601Z,13.65
2022-11-10T03:36:19.953Z,13.66
2022-11-10T03:38:48.369Z,13.69
2022-11-10T03:41:19.776Z,13.72
2022-11-10T03:43:48.812Z,13.73
2022-11-10T03:46:17.255Z,13.76
2022-11-10T03:48:52.990Z,13.78
2022-11-10T03:51:22.639Z,13.81
2022-11-10T03:53:51.211Z,13.82
2022-11-10T03:56:19.625Z,13.83
2022-11-10T03:58:48.078Z,13.80
2022-11-10T04:01:16.831Z,13.79
2022-11-10T04:03:51.259Z,13.79
2022-11-10T04:06:37.734Z,13.80
2022-11-10T04:09:07.861Z,13.78
2022-11-10T04:11:53.616Z,13.76
2022-11-10T04:14:39.287Z,13.75
2022-11-10T04:17:07.676Z,13.74
2022-11-10T04:19:37.574Z,13.76
2022-11-10T04:22:06.003Z,13.78
2022-11-10T04:24:34.375Z,13.81
2022-11-10T04:27:02.707Z,13.82
2022-11-10T04:29:31.043Z,13.85
2022-11-10T04:31:59.406Z,13.88
2022-11-10T04:34:27.757Z,13.91
2022-11-10T04:36:57.458Z,13.94
2022-11-10T04:39:25.835Z,13.98
2022-11-10T04:41:57.148Z,14.01
2022-11-10T04:44:28.139Z,14.04
2022-11-10T04:46:56.506Z,14.07
2022-11-10T04:49:25.166Z,14.09
2022-11-10T04:51:53.538Z,14.12
2022-11-10T04:54:23.265Z,14.16
2022-11-10T04:56:51.637Z,14.23
2022-11-10T04:59:20.152Z,14.30
2022-11-10T05:01:48.508Z,14.37
2022-11-10T05:04:16.867Z,14.42
2022-11-10T05:06:45.451Z,14.46
2022-11-10T05:09:14.008Z,14.51
2022-11-10T05:11:43.690Z,14.56
2022-11-10T05:14:12.482Z,14.59
2022-11-10T05:16:40.822Z,14.62
2022-11-10T05:19:09.856Z,14.65
2022-11-10T05:21:38.192Z,14.66
2022-11-10T05:24:07.210Z,14.66
2022-11-10T05:26:35.615Z,14.67
2022-11-10T05:29:05.335Z,14.66
2022-11-10T05:31:33.706Z,14.64
2022-11-10T05:34:02.114Z,14.62
2022-11-10T05:36:30.488Z,14.61
2022-11-10T05:38:58.838Z,14.61
2022-11-10T05:41:27.189Z,14.61
2022-11-10T05:43:55.551Z,14.64
2022-11-10T05:46:25.835Z,14.64
2022-11-10T05:48:54.183Z,14.65
2022-11-10T05:51:22.518Z,14.64
2022-11-10T05:53:50.916Z,14.63
2022-11-10T05:56:19.301Z,14.62
2022-11-10T05:58:47.644Z,14.63
2022-11-10T06:01:16.071Z,14.63
2022-11-10T06:03:45.904Z,14.64
2022-11-10T06:06:14.310Z,14.67
2022-11-10T06:08:42.724Z,14.72
2022-11-10T06:11:11.069Z,14.77
2022-11-10T06:13:39.389Z,14.83
2022-11-10T06:16:08.204Z,14.91
2022-11-10T06:18:36.595Z,15.00
2022-11-10T06:21:06.749Z,15.07
2022-11-10T06:23:35.084Z,15.16
2022-11-10T06:26:03.436Z,15.23
2022-11-10T06:28:31.818Z,15.32
2022-11-10T06:31:00.168Z,15.40
2022-11-10T06:33:28.558Z,15.50
2022-11-10T06:35:56.888Z,15.58
2022-11-10T06:38:26.671Z,15.64
2022-11-10T06:40:55.026Z,15.73
2022-11-10T06:43:23.633Z,15.81
2022-11-10T06:45:52.283Z,15.86
2022-11-10T06:48:20.826Z,15.94
2022-11-10T06:50:49.246Z,16.01
2022-11-10T06:53:21.732Z,16.06
2022-11-10T06:55:54.119Z,16.10
2022-11-10T06:58:22.485Z,16.15
2022-11-10T07:00:51.016Z,16.17
2022-11-10T07:03:19.668Z,16.20
2022-11-10T07:05:48.262Z,16.23
2022-11-10T07:08:17.544Z,16.27
2022-11-10T07:10:52.169Z,16.30
2022-11-10T07:13:22.505Z,16.33
2022-11-10T07:15:51.691Z,16.36
2022-11-10T07:18:20.375Z,16.39
2022-11-10T07:20:48.963Z,16.40
2022-11-10T07:23:17.360Z,16.42
2022-11-10T07:25:45.735Z,16.44
2022-11-10T07:28:14.169Z,16.48
2022-11-10T07:30:43.951Z,16.49
2022-11-10T07:33:15.080Z,16.55
2022-11-10T07:35:43.562Z,16.59
2022-11-10T07:38:14.759Z,16.63
2022-11-10T07:40:43.197Z,16.67
2022-11-10T07:43:11.568Z,16.73
2022-11-10T07:45:39.945Z,16.77
2022-11-10T07:48:10.655Z,16.81
2022-11-10T07:50:39.062Z,16.84
2022-11-10T07:53:10.545Z,16.87
2022-11-10T07:55:40.892Z,16.88
2022-11-10T07:58:10.322Z,16.93
2022-11-10T08:00:39.888Z,16.98
2022-11-10T08:03:12.865Z,17.05
2022-11-10T08:05:41.432Z,17.11
2022-11-10T08:08:10.308Z,17.17
2022-11-10T08:10:39.871Z,17.21
2022-11-10T08:13:11.613Z,17.26
2022-11-10T08:15:41.597Z,17.27
2022-11-10T08:18:19.116Z,17.27
2022-11-10T08:20:48.703Z,17.30
2022-11-10T08:23:18.042Z,17.35
2022-11-10T08:25:48.063Z,17.41
2022-11-10T08:28:19.596Z,17.48
2022-11-10T08:30:49.817Z,17.53
2022-11-10T08:33:21.930Z,17.59
2022-11-10T08:35:52.802Z,17.67
2022-11-10T08:38:24.424Z,17.75
2022-11-10T08:40:53.383Z,17.84
2022-11-10T08:43:21.958Z,17.94
2022-11-10T08:45:50.609Z,18.03
2022-11-10T08:48:21.824Z,18.14
2022-11-10T08:50:50.790Z,18.23
2022-11-10T08:53:21.750Z,18.31
2022-11-10T08:55:51.386Z,18.35
2022-11-10T08:58:23.412Z,18.38
2022-11-10T09:00:52.726Z,18.40
2022-11-10T09:03:25.863Z,18.44
2022-11-10T09:05:58.245Z,18.46
2022-11-10T09:08:27.110Z,18.49
2022-11-10T09:10:56.083Z,18.54
2022-11-10T09:13:29.434Z,18.62
2022-11-10T09:16:02.201Z,18.66
2022-11-10T09:18:32.598Z,18.73
2022-11-10T09:21:01.093Z,18.81
2022-11-10T09:23:29.562Z,18.90
2022-11-10T09:25:58.375Z,19.00
2022-11-10T09:28:26.843Z,19.09
2022-11-10T09:30:55.318Z,19.20
2022-11-10T09:33:24.134Z,19.30
2022-11-10T09:35:59.906Z,19.40
2022-11-10T09:38:28.346Z,19.49
2022-11-10T09:41:03.488Z,19.53
2022-11-10T09:43:40.781Z,19.58
2022-11-10T09:46:17.420Z,19.61
2022-11-10T09:48:51.942Z,19.66
2022-11-10T09:51:26.997Z,19.73
2022-11-10T09:53:59.849Z,19.78
2022-11-10T09:56:34.206Z,19.82
2022-11-10T09:59:08.446Z,19.86
2022-11-10T10:01:45.213Z,19.85
2022-11-10T10:04:31.959Z,19.85
2022-11-10T10:07:11.386Z,19.87
2022-11-10T10:09:53.978Z,19.86
2022-11-10T10:12:46.925Z,19.83
2022-11-10T10:15:28.576Z,19.75
2022-11-10T10:18:20.641Z,19.65
2022-11-10T10:21:11.805Z,19.56
2022-11-10T10:26:42.557Z,19.38
2022-11-10T10:29:17.908Z,19.34
2022-11-10T10:31:51.442Z,19.32
2022-11-10T10:34:23.178Z,19.32
2022-11-10T10:36:51.744Z,19.29
2022-11-10T10:39:30.956Z,19.24
2022-11-10T10:41:59.759Z,19.25
2022-11-10T10:44:28.450Z,19.25
2022-11-10T10:47:00.239Z,19.22
2022-11-10T10:49:31.369Z,19.16
2022-11-10T10:52:11.625Z,19.12
2022-11-10T10:54:41.986Z,19.09
2022-11-10T10:57:23.683Z,19.04
2022-11-10T10:59:52.668Z,19.04
2022-11-10T11:02:28.088Z,18.98
2022-11-10T11:05:15.345Z,18.96
2022-11-10T11:07:55.350Z,18.97
2022-11-10T11:10:30.146Z,18.92
2022-11-10T11:13:16.112Z,18.87
2022-11-10T11:15:57.663Z,18.85
2022-11-10T11:18:28.440Z,18.85
2022-11-10T11:21:03.782Z,18.83
2022-11-10T11:24:10.702Z,18.81
2022-11-10T11:26:53.709Z,18.83
2022-11-10T11:29:47.719Z,18.79
2022-11-10T11:32:33.668Z,18.83
2022-11-10T11:35:17.110Z,18.85
2022-11-10T11:37:56.407Z,18.89
2022-11-10T11:40:34.972Z,18.93
2022-11-10T11:43:20.346Z,18.99
2022-11-10T11:45:56.484Z,19.07
2022-11-10T11:48:44.679Z,19.10
2022-11-10T11:51:22.416Z,19.17
2022-11-10T11:54:25.143Z,19.19
2022-11-10T11:56:56.106Z,19.26
2022-11-10T11:59:45.409Z,19.30
2022-11-10T12:02:35.521Z,19.32
2022-11-10T12:05:21.075Z,19.34
2022-11-10T12:08:03.071Z,19.34
2022-11-10T12:10:45.606Z,19.36
2022-11-10T12:13:46.860Z,19.38
2022-11-10T12:16:23.399Z,19.39
2022-11-10T12:19:08.697Z,19.40
2022-11-10T12:21:47.029Z,19.40
2022-11-10T12:24:54.118Z,19.41
2022-11-10T12:27:29.710Z,19.43
2022-11-10T12:30:03.389Z,19.44
2022-11-10T12:32:42.067Z,19.44
2022-11-10T12:35:20.671Z,19.42
2022-11-10T12:37:55.073Z,19.42
2022-11-10T12:40:27.063Z,19.44
2022-11-10T12:43:00.579Z,19.40
2022-11-10T12:45:34.354Z,19.39
2022-11-10T12:48:06.543Z,19.40
2022-11-10T12:50:46.283Z,19.44
2022-11-10T12:53:22.995Z,19.54
2022-11-10T12:55:57.128Z,19.61
2022-11-10T12:58:26.845Z,19.66
2022-11-10T13:01:02.086Z,19.61
2022-11-10T13:03:35.277Z,19.56
2022-11-10T13:06:06.101Z,19.53
2022-11-10T13:08:39.200Z,19.49
2022-11-10T13:11:27.530Z,19.45
2022-11-10T13:14:00.230Z,19.41
2022-11-10T13:16:54.667Z,19.32
2022-11-10T13:20:20.838Z,19.23
2022-11-10T13:22:51.257Z,19.20
2022-11-10T13:25:56.620Z,19.12
2022-11-10T13:29:20.008Z,19.06
2022-11-10T13:31:58.697Z,19.06
2022-11-10T13:34:35.553Z,19.06
2022-11-10T13:37:42.555Z,19.05
2022-11-10T13:40:35.949Z,19.09
2022-11-10T13:43:27.811Z,19.08
2022-11-10T13:46:06.659Z,19.06
2022-11-10T13:49:22.967Z,19.02
2022-11-10T13:52:06.414Z,18.99
2022-11-10T13:55:15.982Z,18.93
2022-11-10T13:58:02.064Z,18.92
2022-11-10T14:00:33.826Z,18.92
2022-11-10T14:03:03.691Z,18.88
2022-11-10T14:06:10.867Z,18.77
2022-11-10T14:08:51.914Z,18.74
2022-11-10T14:11:29.302Z,18.68
2022-11-10T14:14:04.107Z,18.61
2022-11-10T14:16:39.228Z,18.53
2022-11-10T14:19:25.840Z,18.41
2022-11-10T14:21:58.660Z,18.34
2022-11-10T14:24:31.759Z,18.27
2022-11-10T14:27:07.339Z,18.18
2022-11-10T14:29:40.025Z,18.11
2022-11-10T14:32:20.568Z,18.03
2022-11-10T14:34:56.692Z,17.95
2022-11-10T14:37:28.128Z,17.88
2022-11-10T14:39:59.187Z,17.81
2022-11-10T14:42:35.366Z,17.74
2022-11-10T14:45:19.163Z,17.66
2022-11-10T14:47:58.068Z,17.59
2022-11-10T14:50:29.165Z,17.52
2022-11-10T14:53:03.055Z,17.46
2022-11-10T14:55:36.326Z,17.42
2022-11-10T14:58:12.688Z,17.37
2022-11-10T15:00:43.413Z,17.32
2022-11-10T15:03:19.323Z,17.28
2022-11-10T15:05:48.235Z,17.23
2022-11-10T15:08:17.209Z,17.19
2022-11-10T15:10:48.795Z,17.15
2022-11-10T15:13:36.253Z,17.09
2022-11-10T15:16:28.416Z,17.02
2022-11-10T15:18:58.485Z,17.00
2022-11-10T15:21:34.211Z,16.95
2022-11-10T15:24:06.943Z,16.93
2022-11-10T15:26:40.318Z,16.91
2022-11-10T15:29:21.367Z,16.87
2022-11-10T15:31:51.133Z,16.87
2022-11-10T15:34:41.793Z,16.80
2022-11-10T15:37:30.009Z,16.77
2022-11-10T15:40:37.126Z,16.67
2022-11-10T15:43:15.320Z,16.65
2022-11-10T15:45:47.748Z,16.59
2022-11-10T15:48:19.400Z,16.56
2022-11-10T15:50:51.650Z,16.54
2022-11-10T15:53:31.327Z,16.48
2022-11-10T15:55:59.715Z,16.45
2022-11-10T15:58:29.619Z,16.42
2022-11-10T16:00:59.463Z,16.39
2022-11-10T16:03:28.400Z,16.39
2022-11-10T16:05:56.778Z,16.37
2022-11-10T16:08:26.242Z,16.37
2022-11-10T16:10:57.684Z,16.36
2022-11-10T16:13:30.558Z,16.35
2022-11-10T16:16:01.610Z,16.36
2022-11-10T16:18:31.779Z,16.36
2022-11-10T16:21:00.194Z,16.39
2022-11-10T16:23:28.679Z,16.43
2022-11-10T16:25:58.373Z,16.45
2022-11-10T16:28:28.865Z,16.47
2022-11-10T16:30:57.628Z,16.48
2022-11-10T16:33:29.224Z,16.47
2022-11-10T16:35:57.968Z,16.43
2022-11-10T16:38:29.462Z,16.40
2022-11-10T16:40:59.995Z,16.37
2022-11-10T16:43:29.509Z,16.34
2022-11-10T16:46:01.247Z,16.32
2022-11-10T16:48:35.412Z,16.32
2022-11-10T16:51:04.113Z,16.32
2022-11-10T16:53:33.711Z,16.34
2022-11-10T16:56:02.494Z,16.35
2022-11-10T16:58:31.612Z,16.36
2022-11-10T17:01:02.815Z,16.36
2022-11-10T17:03:36.031Z,16.37
2022-11-10T17:06:05.624Z,16.38
2022-11-10T17:08:36.711Z,16.37
2022-11-10T17:11:07.029Z,16.36
2022-11-10T17:13:35.685Z,16.34
2022-11-10T17:16:08.464Z,16.31
2022-11-10T17:18:39.146Z,16.30
2022-11-10T17:21:08.748Z,16.27
2022-11-10T17:23:37.544Z,16.25
2022-11-10T17:26:06.575Z,16.22
2022-11-10T17:28:35.564Z,16.20
2022-11-10T17:31:05.503Z,16.17
2022-11-10T17:33:34.392Z,16.16
2022-11-10T17:36:06.192Z,16.13
2022-11-10T17:38:35.835Z,16.10
2022-11-10T17:41:04.901Z,16.07
2022-11-10T17:43:33.645Z,16.04
2022-11-10T17:46:02.198Z,16.01
2022-11-10T17:48:31.298Z,15.99
2022-11-10T17:51:00.245Z,15.98
2022-11-10T17:53:31.290Z,15.98
2022-11-10T17:56:00.236Z,15.97
2022-11-10T17:58:30.857Z,15.96
2022-11-10T18:01:01.049Z,15.95
2022-11-10T18:03:30.882Z,15.96
2022-11-10T18:06:01.229Z,15.96
2022-11-10T18:08:33.473Z,15.95
2022-11-10T18:11:03.396Z,15.97
2022-11-10T18:13:32.323Z,15.95
2022-11-10T18:16:01.668Z,15.94
2022-11-10T18:18:31.086Z,15.96
2022-11-10T18:20:59.918Z,15.96
2022-11-10T18:23:32.099Z,15.95
2022-11-10T18:26:06.436Z,15.94
2022-11-10T18:28:38.406Z,15.93
2022-11-10T18:31:11.151Z,15.92
2022-11-10T18:33:42.253Z,15.91
2022-11-10T18:36:14.886Z,15.91
2022-11-10T18:38:46.531Z,15.90
2022-11-10T18:41:34.661Z,15.89
2022-11-10T18:44:03.813Z,15.87
2022-11-10T18:46:35.411Z,15.85
2022-11-10T18:49:06.682Z,15.85
2022-11-10T18:51:36.566Z,15.83
2022-11-10T18:54:08.081Z,15.80
2022-11-10T18:56:37.762Z,15.77
2022-11-10T18:59:07.564Z,15.74
2022-11-10T19:01:39.274Z,15.71
2022-11-10T19:04:08.755Z,15.69
2022-11-10T19:06:38.710Z,15.67
2022-11-10T19:09:09.975Z,15.63
2022-11-10T19:11:39.817Z,15.60
2022-11-10T19:14:09.045Z,15.57
2022-11-10T19:16:40.288Z,15.54
2022-11-10T19:19:13.099Z,15.52
2022-11-10T19:21:43.328Z,15.50
2022-11-10T19:24:25.820Z,15.47
2022-11-10T19:26:57.755Z,15.43
2022-11-10T19:29:28.344Z,15.42
2022-11-10T19:31:57.531Z,15.41
2022-11-10T19:34:27.117Z,15.39
2022-11-10T19:36:59.393Z,15.37
2022-11-10T19:39:33.149Z,15.35
2022-11-10T19:42:11.263Z,15.33
2022-11-10T19:44:41.139Z,15.30
2022-11-10T19:47:11.744Z,15.29
2022-11-10T19:49:41.508Z,15.27
2022-11-10T19:52:12.035Z,15.26
2022-11-10T19:54:44.826Z,15.24
2022-11-10T19:57:14.491Z,15.23
2022-11-10T19:59:45.224Z,15.23
2022-11-10T20:02:16.375Z,15.23
2022-11-10T20:05:04.709Z,15.23
2022-11-10T20:07:51.374Z,15.22
2022-11-10T20:10:22.312Z,15.19
2022-11-10T20:12:52.139Z,15.19
2022-11-10T20:15:21.934Z,15.19
2022-11-10T20:17:51.900Z,15.20
2022-11-10T20:20:22.697Z,15.19
2022-11-10T20:22:55.737Z,15.18
2022-11-10T20:25:26.754Z,15.14
2022-11-10T20:27:56.232Z,15.13
2022-11-10T20:30:26.540Z,15.11
2022-11-10T20:32:56.191Z,15.08
2022-11-10T20:35:25.825Z,15.06
2022-11-10T20:37:56.304Z,15.02
2022-11-10T20:40:44.061Z,15.00
2022-11-10T20:43:15.332Z,14.97
2022-11-10T20:45:44.877Z,14.94
2022-11-10T20:48:15.933Z,14.92
2022-11-10T20:50:45.525Z,14.91
2022-11-10T20:53:15.060Z,14.91
2022-11-10T20:55:54.128Z,14.89
2022-11-10T20:58:22.943Z,14.90
2022-11-10T21:00:52.884Z,14.90
2022-11-10T21:03:22.284Z,14.88
2022-11-10T21:05:55.894Z,14.86
2022-11-10T21:08:24.725Z,14.86
2022-11-10T21:10:57.354Z,14.84
2022-11-10T21:13:26.757Z,14.82
2022-11-10T21:15:57.734Z,14.80
2022-11-10T21:18:29.790Z,14.79
2022-11-10T21:21:01.041Z,14.77
2022-11-10T21:23:30.164Z,14.75
2022-11-10T21:26:02.544Z,14.73
2022-11-10T21:28:31.094Z,14.69
2022-11-10T21:31:04.767Z,14.67
2022-11-10T21:33:33.301Z,14.67
2022-11-10T21:36:07.295Z,14.63
2022-11-10T21:38:36.004Z,14.64
2022-11-10T21:41:06.135Z,14.62
2022-11-10T21:43:34.735Z,14.62
2022-11-10T21:46:04.048Z,14.60
2022-11-10T21:48:32.437Z,14.60
2022-11-10T21:51:01.867Z,14.61
2022-11-10T21:53:30.886Z,14.61
2022-11-10T21:56:00.169Z,14.60
2022-11-10T21:58:30.221Z,14.62
2022-11-10T22:01:03.118Z,14.60
2022-11-10T22:03:32.266Z,14.59
2022-11-10T22:06:04.874Z,14.59
2022-11-10T22:08:33.914Z,14.58
2022-11-10T22:11:20.113Z,14.57
2022-11-10T22:14:07.589Z,14.54
2022-11-10T22:17:00.525Z,14.52
2022-11-10T22:19:29.038Z,14.49
2022-11-10T22:22:03.300Z,14.47
2022-11-10T22:24:33.761Z,14.47
2022-11-10T22:27:04.976Z,14.46
2022-11-10T22:29:35.203Z,14.45
2022-11-10T22:32:04.865Z,14.44
2022-11-10T22:34:33.395Z,14.43
2022-11-10T22:37:01.888Z,14.42
2022-11-10T22:39:44.502Z,14.44
2022-11-10T22:42:31.450Z,14.43
2022-11-10T22:45:01.440Z,14.41
2022-11-10T22:47:50.214Z,14.42
2022-11-10T22:50:18.655Z,14.41
2022-11-10T22:52:47.264Z,14.41
2022-11-10T22:55:16.056Z,14.40
2022-11-10T22:57:44.481Z,14.41
2022-11-10T23:00:17.202Z,14.41
2022-11-10T23:02:45.616Z,14.43
2022-11-10T23:05:14.242Z,14.43
2022-11-10T23:07:42.733Z,14.44
2022-11-10T23:10:11.506Z,14.42
2022-11-10T23:12:40.857Z,14.44
2022-11-10T23:15:10.724Z,14.43
2022-11-10T23:17:40.617Z,14.45
2022-11-10T23:20:11.004Z,14.46
2022-11-10T23:22:39.451Z,14.47
2022-11-10T23:25:09.259Z,14.48
2022-11-10T23:27:37.801Z,14.48
2022-11-10T23:30:08.079Z,14.48
2022-11-10T23:32:36.579Z,14.49
2022-11-10T23:35:07.700Z,14.49
2022-11-10T23:37:36.175Z,14.48
2022-11-10T23:40:05.832Z,14.48
2022-11-10T23:42:34.307Z,14.45
2022-11-10T23:45:02.748Z,14.43
2022-11-10T23:47:31.271Z,14.43
2022-11-10T23:49:59.756Z,14.41
2022-11-10T23:52:29.599Z,14.42
2022-11-10T23:54:58.061Z,14.42
2022-11-10T23:57:26.503Z,14.41
2022-11-10T23:59:54.962Z,14.40
